createdAt,value
2023-02-06T00:00:15.707Z,-7.27
2023-02-06T00:01:19.097Z,-7.28
2023-02-06T00:02:22.359Z,-7.29
2023-02-06T00:03:25.600Z,-7.33
2023-02-06T00:04:28.741Z,-7.36
2023-02-06T00:05:31.812Z,-7.38
2023-02-06T00:06:35.195Z,-7.40
2023-02-06T00:07:41.590Z,-7.43
2023-02-06T00:08:45.283Z,-7.40
2023-02-06T00:09:48.388Z,-7.36
2023-02-06T00:10:51.702Z,-7.38
2023-02-06T00:11:54.781Z,-7.41
2023-02-06T00:12:57.881Z,-7.42
2023-02-06T00:14:01.346Z,-7.46
2023-02-06T00:15:04.524Z,-7.45
2023-02-06T00:16:17.471Z,-7.43
2023-02-06T00:17:20.862Z,-7.51
2023-02-06T00:18:23.865Z,-7.53
2023-02-06T00:19:27.160Z,-7.57
2023-02-06T00:20:30.220Z,-7.55
2023-02-06T00:21:33.520Z,-7.56
2023-02-06T00:22:36.912Z,-7.55
2023-02-06T00:23:40.350Z,-7.57
2023-02-06T00:24:43.519Z,-7.61
2023-02-06T00:25:46.628Z,-7.63
2023-02-06T00:26:49.743Z,-7.60
2023-02-06T00:27:53.085Z,-7.63
2023-02-06T00:28:56.563Z,-7.66
2023-02-06T00:29:59.677Z,-7.62
2023-02-06T00:31:05.238Z,-7.60
2023-02-06T00:32:08.513Z,-7.64
2023-02-06T00:33:11.656Z,-7.59
2023-02-06T00:34:14.696Z,-7.62
2023-02-06T00:35:17.736Z,-7.67
2023-02-06T00:36:20.830Z,-7.71
2023-02-06T00:37:23.987Z,-7.73
2023-02-06T00:38:27.270Z,-7.76
2023-02-06T00:39:30.673Z,-7.76
2023-02-06T00:40:33.770Z,-7.77
2023-02-06T00:41:37.199Z,-7.79
2023-02-06T00:42:40.232Z,-7.78
2023-02-06T00:43:43.830Z,-7.78
2023-02-06T00:44:46.925Z,-7.77
2023-02-06T00:45:54.040Z,-7.79
2023-02-06T00:46:59.177Z,-7.80
2023-02-06T00:48:02.785Z,-7.84
2023-02-06T00:49:06.035Z,-7.87
2023-02-06T00:50:09.516Z,-7.88
2023-02-06T00:51:12.769Z,-7.88
2023-02-06T00:52:15.914Z,-7.86
2023-02-06T00:53:19.191Z,-7.88
2023-02-06T00:54:22.217Z,-7.88
2023-02-06T00:55:25.427Z,-7.87
2023-02-06T00:56:28.463Z,-7.89
2023-02-06T00:57:31.867Z,-7.88
2023-02-06T00:58:35.278Z,-7.85
2023-02-06T00:59:38.540Z,-7.85
2023-02-06T01:00:41.943Z,-7.85
2023-02-06T01:01:45.714Z,-7.86
2023-02-06T01:02:49.024Z,-7.87
2023-02-06T01:03:52.952Z,-7.82
2023-02-06T01:04:56.193Z,-7.73
2023-02-06T01:05:59.215Z,-7.71
2023-02-06T01:07:03.068Z,-7.75
2023-02-06T01:08:09.612Z,-7.80
2023-02-06T01:09:12.766Z,-7.87
2023-02-06T01:10:16.142Z,-7.95
2023-02-06T01:11:25.057Z,-7.98
2023-02-06T01:12:28.233Z,-8.03
2023-02-06T01:13:31.423Z,-8.07
2023-02-06T01:14:34.513Z,-8.05
2023-02-06T01:15:38.126Z,-8.06
2023-02-06T01:16:41.250Z,-8.01
2023-02-06T01:17:44.321Z,-7.96
2023-02-06T01:18:47.864Z,-7.88
2023-02-06T01:19:51.236Z,-7.88
2023-02-06T01:20:54.157Z,-7.92
2023-02-06T01:21:57.245Z,-7.93
2023-02-06T01:23:00.569Z,-7.92
2023-02-06T01:24:03.998Z,-7.91
2023-02-06T01:25:07.363Z,-7.88
2023-02-06T01:26:14.752Z,-7.90
2023-02-06T01:27:17.789Z,-7.88
2023-02-06T01:28:24.810Z,-7.82
2023-02-06T01:29:27.961Z,-7.83
2023-02-06T01:30:31.252Z,-7.73
2023-02-06T01:31:35.112Z,-7.72
2023-02-06T01:32:40.015Z,-7.69
2023-02-06T01:33:44.840Z,-7.72
2023-02-06T01:34:47.875Z,-7.70
2023-02-06T01:35:57.113Z,-7.61
2023-02-06T01:37:00.177Z,-7.53
2023-02-06T01:38:03.163Z,-7.46
2023-02-06T01:39:07.359Z,-7.35
2023-02-06T01:40:16.123Z,-6.98
2023-02-06T01:41:22.353Z,-6.86
2023-02-06T01:42:25.454Z,-6.87
2023-02-06T01:43:34.703Z,-6.89
2023-02-06T01:44:38.103Z,-6.77
2023-02-06T01:45:43.349Z,-6.77
2023-02-06T01:46:48.763Z,-6.70
2023-02-06T01:48:00.592Z,-6.71
2023-02-06T01:49:07.051Z,-6.71
2023-02-06T01:50:10.544Z,-6.68
2023-02-06T01:51:18.590Z,-6.68
2023-02-06T01:52:30.800Z,-6.63
2023-02-06T01:53:35.452Z,-6.66
2023-02-06T01:54:38.712Z,-6.65
2023-02-06T01:55:45.429Z,-6.62
2023-02-06T01:56:53.638Z,-6.63
2023-02-06T01:57:57.657Z,-6.56
2023-02-06T01:59:05.728Z,-6.54
2023-02-06T02:00:11.390Z,-6.61
2023-02-06T02:01:15.820Z,-6.61
2023-02-06T02:02:18.935Z,-6.65
2023-02-06T02:03:22.528Z,-6.70
2023-02-06T02:04:28.642Z,-6.71
2023-02-06T02:05:33.972Z,-6.73
2023-02-06T02:06:37.801Z,-6.73
2023-02-06T02:07:54.014Z,-6.70
2023-02-06T02:08:58.474Z,-6.74
2023-02-06T02:10:02.072Z,-6.84
2023-02-06T02:11:07.782Z,-6.87
2023-02-06T02:12:11.201Z,-6.87
2023-02-06T02:13:14.229Z,-6.92
2023-02-06T02:14:17.815Z,-6.94
2023-02-06T02:15:25.894Z,-7.04
2023-02-06T02:16:52.647Z,-6.98
2023-02-06T02:18:19.129Z,-6.99
2023-02-06T02:20:03.176Z,-7.00
2023-02-06T02:21:34.939Z,-6.92
2023-02-06T02:23:06.396Z,-6.96
2023-02-06T02:24:26.845Z,-7.07
2023-02-06T02:26:05.496Z,-7.21
2023-02-06T02:27:33.274Z,-7.31
2023-02-06T02:28:48.608Z,-7.31
2023-02-06T02:30:03.849Z,-7.29
2023-02-06T02:31:31.911Z,-7.36
2023-02-06T02:33:05.835Z,-7.40
2023-02-06T02:34:32.713Z,-7.42
2023-02-06T02:36:00.385Z,-7.40
2023-02-06T02:37:31.999Z,-7.43
2023-02-06T02:38:41.597Z,-7.48
2023-02-06T02:39:55.254Z,-7.44
2023-02-06T02:41:16.177Z,-7.38
2023-02-06T02:42:49.086Z,-7.48
2023-02-06T02:44:03.790Z,-7.52
2023-02-06T02:45:33.680Z,-7.51
2023-02-06T02:46:51.001Z,-7.60
2023-02-06T02:48:11.967Z,-7.66
2023-02-06T02:49:24.241Z,-7.66
2023-02-06T02:50:29.817Z,-7.68
2023-02-06T02:51:34.479Z,-7.63
2023-02-06T02:52:37.421Z,-7.61
2023-02-06T02:53:40.625Z,-7.58
2023-02-06T02:54:44.103Z,-7.67
2023-02-06T02:55:47.428Z,-7.72
2023-02-06T02:56:50.726Z,-7.73
2023-02-06T02:58:01.010Z,-7.73
2023-02-06T02:59:06.610Z,-7.78
2023-02-06T03:00:11.040Z,-7.81
2023-02-06T03:01:21.609Z,-7.82
2023-02-06T03:02:38.366Z,-7.81
2023-02-06T03:03:44.831Z,-7.83
2023-02-06T03:05:00.591Z,-7.85
2023-02-06T03:06:39.699Z,-7.86
2023-02-06T03:07:45.458Z,-7.87
2023-02-06T03:09:06.202Z,-7.84
2023-02-06T03:10:17.942Z,-7.86
2023-02-06T03:11:21.742Z,-7.86
2023-02-06T03:12:49.027Z,-7.82
2023-02-06T03:14:06.339Z,-7.84
2023-02-06T03:15:12.021Z,-7.84
2023-02-06T03:16:22.447Z,-7.89
2023-02-06T03:17:48.321Z,-7.88
2023-02-06T03:19:09.549Z,-7.84
2023-02-06T03:20:14.778Z,-7.84
2023-02-06T03:21:21.537Z,-7.83
2023-02-06T03:22:26.068Z,-7.79
2023-02-06T03:23:32.876Z,-7.79
2023-02-06T03:24:39.686Z,-7.82
2023-02-06T03:25:45.030Z,-7.79
2023-02-06T03:26:52.504Z,-7.77
2023-02-06T03:27:59.716Z,-7.76
2023-02-06T03:29:06.506Z,-7.77
2023-02-06T03:30:14.578Z,-7.78
2023-02-06T03:31:25.289Z,-7.77
2023-02-06T03:32:32.977Z,-7.76
2023-02-06T03:33:44.149Z,-7.80
2023-02-06T03:34:51.793Z,-7.81
2023-02-06T03:35:57.177Z,-7.75
2023-02-06T03:37:00.742Z,-7.75
2023-02-06T03:38:07.218Z,-7.82
2023-02-06T03:39:10.566Z,-7.84
2023-02-06T03:40:18.590Z,-7.85
2023-02-06T03:41:29.822Z,-7.81
2023-02-06T03:42:37.813Z,-7.81
2023-02-06T03:43:44.200Z,-7.83
2023-02-06T03:44:57.981Z,-7.79
2023-02-06T03:46:05.419Z,-7.81
2023-02-06T03:47:11.091Z,-7.85
2023-02-06T03:48:23.909Z,-7.91
2023-02-06T03:49:29.946Z,-7.91
2023-02-06T03:50:42.549Z,-7.89
2023-02-06T03:51:51.897Z,-7.90
2023-02-06T03:52:58.389Z,-7.92
2023-02-06T03:54:04.923Z,-7.92
2023-02-06T03:55:15.666Z,-7.92
2023-02-06T03:56:49.141Z,-7.89
2023-02-06T03:57:56.637Z,-7.83
2023-02-06T03:59:00.212Z,-7.88
2023-02-06T04:00:04.969Z,-7.88
2023-02-06T04:01:12.063Z,-7.90
2023-02-06T04:02:17.232Z,-7.82
2023-02-06T04:03:21.727Z,-7.86
2023-02-06T04:04:51.311Z,-7.82
2023-02-06T04:05:54.248Z,-7.85
2023-02-06T04:07:02.110Z,-7.80
2023-02-06T04:08:05.435Z,-7.78
2023-02-06T04:09:08.493Z,-7.67
2023-02-06T04:10:12.315Z,-7.68
2023-02-06T04:11:15.625Z,-7.67
2023-02-06T04:12:19.049Z,-7.66
2023-02-06T04:13:21.991Z,-7.67
2023-02-06T04:14:25.157Z,-7.61
2023-02-06T04:15:28.129Z,-7.60
2023-02-06T04:16:31.390Z,-7.58
2023-02-06T04:17:49.841Z,-7.62
2023-02-06T04:18:56.962Z,-7.65
2023-02-06T04:19:59.929Z,-7.64
2023-02-06T04:21:07.498Z,-7.64
2023-02-06T04:22:13.728Z,-7.63
2023-02-06T04:23:16.998Z,-7.60
2023-02-06T04:24:19.987Z,-7.54
2023-02-06T04:25:23.451Z,-7.63
2023-02-06T04:26:28.562Z,-7.53
2023-02-06T04:27:31.890Z,-7.54
2023-02-06T04:28:38.574Z,-7.54
2023-02-06T04:29:41.865Z,-7.51
2023-02-06T04:30:44.967Z,-7.56
2023-02-06T04:31:47.978Z,-7.57
2023-02-06T04:32:51.234Z,-7.61
2023-02-06T04:33:54.328Z,-7.62
2023-02-06T04:34:57.322Z,-7.64
2023-02-06T04:36:00.514Z,-7.65
2023-02-06T04:37:04.862Z,-7.67
2023-02-06T04:38:08.368Z,-7.68
2023-02-06T04:39:11.383Z,-7.74
2023-02-06T04:40:14.779Z,-7.76
2023-02-06T04:41:19.854Z,-7.79
2023-02-06T04:42:23.062Z,-7.84
2023-02-06T04:43:25.963Z,-7.86
2023-02-06T04:44:29.206Z,-7.90
2023-02-06T04:45:32.309Z,-7.96
2023-02-06T04:46:35.354Z,-8.01
2023-02-06T04:47:38.666Z,-8.04
2023-02-06T04:48:42.056Z,-8.07
2023-02-06T04:49:45.294Z,-8.10
2023-02-06T04:50:50.200Z,-8.13
2023-02-06T04:51:53.358Z,-8.16
2023-02-06T04:52:56.396Z,-8.15
2023-02-06T04:53:59.419Z,-8.15
2023-02-06T04:55:02.445Z,-8.18
2023-02-06T04:56:11.906Z,-8.16
2023-02-06T04:57:18.802Z,-8.17
2023-02-06T04:58:22.646Z,-8.21
2023-02-06T04:59:25.770Z,-8.26
2023-02-06T05:00:28.760Z,-8.28
2023-02-06T05:01:31.888Z,-8.26
2023-02-06T05:02:39.983Z,-8.21
2023-02-06T05:03:43.220Z,-8.20
2023-02-06T05:04:46.227Z,-8.23
2023-02-06T05:05:49.196Z,-8.23
2023-02-06T05:06:52.263Z,-8.24
2023-02-06T05:07:55.301Z,-8.29
2023-02-06T05:09:00.097Z,-8.26
2023-02-06T05:10:04.233Z,-8.29
2023-02-06T05:11:07.664Z,-8.28
2023-02-06T05:12:12.640Z,-8.29
2023-02-06T05:13:17.324Z,-8.29
2023-02-06T05:14:20.429Z,-8.29
2023-02-06T05:15:23.386Z,-8.26
2023-02-06T05:16:26.429Z,-8.26
2023-02-06T05:17:29.622Z,-8.28
2023-02-06T05:18:33.017Z,-8.24
2023-02-06T05:19:36.120Z,-8.22
2023-02-06T05:20:39.008Z,-8.23
2023-02-06T05:21:42.227Z,-8.23
2023-02-06T05:22:45.328Z,-8.22
2023-02-06T05:23:48.633Z,-8.21
2023-02-06T05:24:51.707Z,-8.18
2023-02-06T05:25:54.953Z,-8.16
2023-02-06T05:26:58.739Z,-8.09
2023-02-06T05:28:03.113Z,-8.08
2023-02-06T05:29:06.388Z,-8.08
2023-02-06T05:30:10.232Z,-8.04
2023-02-06T05:31:20.979Z,-8.03
2023-02-06T05:32:24.139Z,-7.99
2023-02-06T05:33:27.176Z,-8.01
2023-02-06T05:34:30.293Z,-8.07
2023-02-06T05:35:33.368Z,-8.07
2023-02-06T05:36:36.794Z,-8.09
2023-02-06T05:37:39.775Z,-8.08
2023-02-06T05:38:42.928Z,-8.04
2023-02-06T05:39:45.987Z,-8.05
2023-02-06T05:40:51.610Z,-8.05
2023-02-06T05:41:54.673Z,-8.04
2023-02-06T05:42:58.937Z,-8.05
2023-02-06T05:44:02.059Z,-8.00
2023-02-06T05:45:05.399Z,-7.97
2023-02-06T05:46:08.635Z,-8.00
2023-02-06T05:47:11.879Z,-7.95
2023-02-06T05:48:15.064Z,-7.97
2023-02-06T05:49:18.209Z,-7.95
2023-02-06T05:50:21.776Z,-7.87
2023-02-06T05:51:24.780Z,-7.93
2023-02-06T05:52:27.677Z,-7.95
2023-02-06T05:53:31.004Z,-7.99
2023-02-06T05:54:33.984Z,-7.91
2023-02-06T05:55:37.271Z,-7.94
2023-02-06T05:56:40.494Z,-7.99
2023-02-06T05:57:43.746Z,-8.02
2023-02-06T05:58:46.992Z,-8.03
2023-02-06T05:59:50.240Z,-8.01
2023-02-06T06:00:53.644Z,-8.03
2023-02-06T06:01:56.530Z,-8.03
2023-02-06T06:02:59.841Z,-8.03
2023-02-06T06:04:02.825Z,-8.03
2023-02-06T06:05:06.118Z,-8.03
2023-02-06T06:06:09.260Z,-8.04
2023-02-06T06:07:12.101Z,-8.04
2023-02-06T06:08:15.757Z,-7.98
2023-02-06T06:09:18.804Z,-7.97
2023-02-06T06:10:21.929Z,-7.94
2023-02-06T06:11:25.087Z,-7.91
2023-02-06T06:12:28.039Z,-7.95
2023-02-06T06:13:31.189Z,-7.97
2023-02-06T06:14:34.138Z,-7.95
2023-02-06T06:15:37.555Z,-7.92
2023-02-06T06:16:42.040Z,-7.93
2023-02-06T06:17:48.597Z,-7.89
2023-02-06T06:18:51.823Z,-7.92
2023-02-06T06:19:54.862Z,-7.95
2023-02-06T06:20:57.945Z,-7.96
2023-02-06T06:22:01.028Z,-7.99
2023-02-06T06:23:04.288Z,-7.97
2023-02-06T06:24:07.605Z,-7.97
2023-02-06T06:25:10.893Z,-7.94
2023-02-06T06:26:14.155Z,-7.93
2023-02-06T06:27:17.511Z,-7.91
2023-02-06T06:28:22.817Z,-7.86
2023-02-06T06:29:26.856Z,-7.82
2023-02-06T06:30:30.229Z,-7.87
2023-02-06T06:31:33.538Z,-7.79
2023-02-06T06:32:36.996Z,-7.73
2023-02-06T06:33:40.972Z,-7.76
2023-02-06T06:34:44.007Z,-7.80
2023-02-06T06:35:47.073Z,-7.81
2023-02-06T06:36:50.090Z,-7.79
2023-02-06T06:37:53.069Z,-7.79
2023-02-06T06:38:56.359Z,-7.77
2023-02-06T06:39:59.435Z,-7.73
2023-02-06T06:41:02.492Z,-7.77
2023-02-06T06:42:05.477Z,-7.78
2023-02-06T06:43:08.498Z,-7.83
2023-02-06T06:44:11.398Z,-7.86
2023-02-06T06:45:14.529Z,-7.80
2023-02-06T06:46:19.392Z,-7.80
2023-02-06T06:47:22.491Z,-7.81
2023-02-06T06:48:28.584Z,-7.79
2023-02-06T06:49:31.805Z,-7.78
2023-02-06T06:50:35.014Z,-7.77
2023-02-06T06:51:38.139Z,-7.76
2023-02-06T06:52:41.203Z,-7.74
2023-02-06T06:53:44.246Z,-7.72
2023-02-06T06:54:47.411Z,-7.69
2023-02-06T06:55:50.537Z,-7.65
2023-02-06T06:56:53.573Z,-7.64
2023-02-06T06:57:56.534Z,-7.64
2023-02-06T06:58:59.761Z,-7.61
2023-02-06T07:00:03.233Z,-7.58
2023-02-06T07:01:08.949Z,-7.55
2023-02-06T07:02:12.252Z,-7.49
2023-02-06T07:03:15.370Z,-7.46
2023-02-06T07:04:21.214Z,-7.42
2023-02-06T07:05:24.210Z,-7.35
2023-02-06T07:06:27.702Z,-7.32
2023-02-06T07:07:30.781Z,-7.29
2023-02-06T07:08:36.305Z,-7.28
2023-02-06T07:09:39.433Z,-7.23
2023-02-06T07:10:42.820Z,-7.21
2023-02-06T07:11:45.939Z,-7.18
2023-02-06T07:12:48.944Z,-7.14
2023-02-06T07:13:52.501Z,-7.08
2023-02-06T07:14:55.737Z,-7.02
2023-02-06T07:15:58.803Z,-6.98
2023-02-06T07:17:02.292Z,-6.94
2023-02-06T07:18:05.545Z,-6.92
2023-02-06T07:19:09.545Z,-6.91
2023-02-06T07:20:13.214Z,-6.90
2023-02-06T07:21:20.649Z,-6.84
2023-02-06T07:22:23.885Z,-6.81
2023-02-06T07:23:27.545Z,-6.75
2023-02-06T07:24:30.580Z,-6.71
2023-02-06T07:25:34.347Z,-6.67
2023-02-06T07:26:37.632Z,-6.60
2023-02-06T07:27:40.944Z,-6.53
2023-02-06T07:28:44.288Z,-6.46
2023-02-06T07:29:47.432Z,-6.40
2023-02-06T07:30:50.795Z,-6.35
2023-02-06T07:31:54.080Z,-6.19
2023-02-06T07:32:57.107Z,-6.13
2023-02-06T07:34:02.523Z,-6.08
2023-02-06T07:35:06.495Z,-6.02
2023-02-06T07:36:14.436Z,-5.92
2023-02-06T07:37:20.568Z,-5.81
2023-02-06T07:38:23.585Z,-5.74
2023-02-06T07:41:06.473Z,-5.57
2023-02-06T07:42:09.494Z,-5.47
2023-02-06T07:43:13.064Z,-5.33
2023-02-06T07:44:16.216Z,-5.22
2023-02-06T07:45:19.594Z,-5.04
2023-02-06T07:46:23.021Z,-4.87
2023-02-06T07:47:26.734Z,-4.81
2023-02-06T07:48:31.245Z,-4.66
2023-02-06T07:49:34.078Z,-4.68
2023-02-06T07:50:37.224Z,-4.67
2023-02-06T07:51:40.166Z,-4.56
2023-02-06T07:52:43.208Z,-4.49
2023-02-06T07:53:46.341Z,-4.44
2023-02-06T07:54:49.495Z,-4.30
2023-02-06T07:55:52.533Z,-4.31
2023-02-06T07:56:55.721Z,-4.28
2023-02-06T07:57:58.971Z,-4.27
2023-02-06T07:59:02.426Z,-4.23
2023-02-06T08:00:06.106Z,-4.02
2023-02-06T08:01:10.053Z,-3.91
2023-02-06T08:02:13.251Z,-3.80
2023-02-06T08:03:16.453Z,-3.80
2023-02-06T08:04:19.708Z,-3.73
2023-02-06T08:05:22.862Z,-3.78
2023-02-06T08:06:26.679Z,-3.76
2023-02-06T08:07:29.970Z,-3.69
2023-02-06T08:08:33.189Z,-3.62
2023-02-06T08:09:36.338Z,-3.70
2023-02-06T08:10:40.262Z,-3.69
2023-02-06T08:11:43.790Z,-3.63
2023-02-06T08:12:46.862Z,-3.56
2023-02-06T08:13:50.161Z,-3.53
2023-02-06T08:14:53.237Z,-3.41
2023-02-06T08:15:56.286Z,-3.31
2023-02-06T08:16:59.825Z,-3.27
2023-02-06T08:18:02.910Z,-3.10
2023-02-06T08:19:07.206Z,-3.11
2023-02-06T08:20:11.497Z,-3.03
2023-02-06T08:21:23.076Z,-2.98
2023-02-06T08:22:26.244Z,-2.84
2023-02-06T08:23:29.514Z,-2.87
2023-02-06T08:24:32.897Z,-2.81
2023-02-06T08:25:36.137Z,-2.70
2023-02-06T08:26:39.981Z,-2.65
2023-02-06T08:27:43.353Z,-2.71
2023-02-06T08:28:48.500Z,-2.69
2023-02-06T08:29:52.502Z,-2.68
2023-02-06T08:30:55.643Z,-2.61
2023-02-06T08:31:59.014Z,-2.56
2023-02-06T08:33:02.076Z,-2.49
2023-02-06T08:34:06.651Z,-2.37
2023-02-06T08:35:09.598Z,-2.42
2023-02-06T08:36:15.568Z,-2.38
2023-02-06T08:37:19.079Z,-2.34
2023-02-06T08:38:22.337Z,-2.27
2023-02-06T08:39:25.482Z,-2.19
2023-02-06T08:40:28.540Z,-2.16
2023-02-06T08:41:38.000Z,-2.15
2023-02-06T08:42:40.945Z,-2.12
2023-02-06T08:43:48.207Z,-2.08
2023-02-06T08:44:52.661Z,-1.98
2023-02-06T08:46:00.038Z,-1.95
2023-02-06T08:47:10.206Z,-1.91
2023-02-06T08:48:16.870Z,-1.82
2023-02-06T08:49:22.502Z,-1.86
2023-02-06T08:50:25.551Z,-1.78
2023-02-06T08:51:29.141Z,-1.69
2023-02-06T08:52:32.306Z,-1.66
2023-02-06T08:53:36.429Z,-1.65
2023-02-06T08:54:39.622Z,-1.70
2023-02-06T08:55:45.823Z,-1.66
2023-02-06T08:56:49.934Z,-1.64
2023-02-06T08:57:53.536Z,-1.62
2023-02-06T08:59:01.678Z,-1.67
2023-02-06T09:00:05.803Z,-1.80
2023-02-06T09:01:14.334Z,-1.83
2023-02-06T09:02:17.732Z,-1.81
2023-02-06T09:03:23.350Z,-1.77
2023-02-06T09:04:31.863Z,-1.77
2023-02-06T09:05:34.928Z,-1.83
2023-02-06T09:06:40.668Z,-1.76
2023-02-06T09:07:43.655Z,-1.81
2023-02-06T09:08:46.716Z,-1.77
2023-02-06T09:09:49.923Z,-1.82
2023-02-06T09:10:53.052Z,-1.88
2023-02-06T09:11:58.039Z,-1.94
2023-02-06T09:13:01.043Z,-1.83
2023-02-06T09:14:07.115Z,-1.79
2023-02-06T09:15:10.526Z,-1.79
2023-02-06T09:16:16.016Z,-1.88
2023-02-06T09:17:19.298Z,-1.78
2023-02-06T09:18:22.465Z,-1.71
2023-02-06T09:19:26.635Z,-1.71
2023-02-06T09:20:29.663Z,-1.76
2023-02-06T09:21:35.385Z,-1.76
2023-02-06T09:22:38.370Z,-1.71
2023-02-06T09:23:44.180Z,-1.60
2023-02-06T09:24:47.207Z,-1.60
2023-02-06T09:25:50.239Z,-1.59
2023-02-06T09:26:59.765Z,-1.60
2023-02-06T09:28:03.150Z,-1.55
2023-02-06T09:29:08.169Z,-1.47
2023-02-06T09:30:11.977Z,-1.42
2023-02-06T09:31:15.675Z,-1.38
2023-02-06T09:32:19.145Z,-1.26
2023-02-06T09:33:22.244Z,-1.20
2023-02-06T09:34:26.314Z,-1.16
2023-02-06T09:35:29.240Z,-1.17
2023-02-06T09:36:34.104Z,-1.11
2023-02-06T09:37:37.113Z,-1.15
2023-02-06T09:38:48.617Z,-1.09
2023-02-06T09:39:51.780Z,-1.10
2023-02-06T09:40:56.724Z,-1.09
2023-02-06T09:42:06.817Z,-1.10
2023-02-06T09:43:12.589Z,-1.07
2023-02-06T09:44:35.052Z,-1.05
2023-02-06T09:45:39.990Z,-0.94
2023-02-06T09:46:52.203Z,-1.03
2023-02-06T09:48:06.544Z,-1.05
2023-02-06T09:49:37.556Z,-1.07
2023-02-06T09:51:02.225Z,-1.09
2023-02-06T09:52:29.327Z,-1.15
2023-02-06T09:53:47.410Z,-1.03
2023-02-06T09:54:53.331Z,-0.97
2023-02-06T09:56:09.037Z,-1.04
2023-02-06T09:57:15.966Z,-1.11
2023-02-06T09:58:20.552Z,-1.11
2023-02-06T09:59:35.851Z,-1.11
2023-02-06T10:00:52.725Z,-1.08
2023-02-06T10:02:19.404Z,-1.12
2023-02-06T10:03:52.953Z,-1.26
2023-02-06T10:05:29.300Z,-1.15
2023-02-06T10:06:47.703Z,-1.11
2023-02-06T10:08:11.005Z,-1.12
2023-02-06T10:09:24.941Z,-0.96
2023-02-06T10:10:44.355Z,-0.97
2023-02-06T10:11:56.815Z,-1.04
2023-02-06T10:13:20.339Z,-1.18
2023-02-06T10:14:36.763Z,-1.16
2023-02-06T10:15:47.663Z,-1.12
2023-02-06T10:17:05.324Z,-1.06
2023-02-06T10:18:11.373Z,-0.99
2023-02-06T10:19:36.059Z,-0.88
2023-02-06T10:20:58.951Z,-0.80
2023-02-06T10:22:05.454Z,-0.72
2023-02-06T10:23:23.255Z,-0.68
2023-02-06T10:24:59.062Z,-0.77
2023-02-06T10:26:18.471Z,-0.78
2023-02-06T10:27:21.611Z,-0.82
2023-02-06T10:28:29.413Z,-0.81
2023-02-06T10:29:36.593Z,-0.75
2023-02-06T10:31:02.808Z,-0.65
2023-02-06T10:32:33.779Z,-0.64
2023-02-06T10:34:18.268Z,-0.67
2023-02-06T10:35:24.481Z,-0.55
2023-02-06T10:36:50.082Z,-0.50
2023-02-06T10:38:25.665Z,-0.55
2023-02-06T10:39:47.356Z,-0.44
2023-02-06T10:41:15.152Z,-0.44
2023-02-06T10:42:25.865Z,-0.36
2023-02-06T10:43:48.439Z,-0.54
2023-02-06T10:45:18.464Z,-0.50
2023-02-06T10:46:43.123Z,-0.51
2023-02-06T10:47:49.765Z,-0.55
2023-02-06T10:49:07.208Z,-0.52
2023-02-06T10:50:20.019Z,-0.55
2023-02-06T10:51:32.253Z,-0.63
2023-02-06T10:52:37.716Z,-0.67
2023-02-06T10:53:52.683Z,-0.77
2023-02-06T10:55:01.654Z,-0.61
2023-02-06T10:56:12.982Z,-0.59
2023-02-06T10:57:28.956Z,-0.46
2023-02-06T10:58:52.681Z,-0.46
2023-02-06T11:00:00.912Z,-0.38
2023-02-06T11:01:23.631Z,-0.45
2023-02-06T11:03:06.827Z,-0.46
2023-02-06T11:04:10.262Z,-0.55
2023-02-06T11:05:21.870Z,-0.49
2023-02-06T11:06:26.601Z,-0.47
2023-02-06T11:07:38.682Z,-0.38
2023-02-06T11:08:46.561Z,-0.28
2023-02-06T11:09:49.784Z,-0.11
2023-02-06T11:10:54.200Z,-0.13
2023-02-06T11:11:58.887Z,-0.03
2023-02-06T11:13:29.351Z,-0.03
2023-02-06T11:14:37.748Z,-0.04
2023-02-06T11:15:43.543Z,0.10
2023-02-06T11:16:47.864Z,0.17
2023-02-06T11:17:53.004Z,0.23
2023-02-06T11:19:00.552Z,0.21
2023-02-06T11:20:22.059Z,0.17
2023-02-06T11:21:53.546Z,0.09
2023-02-06T11:22:57.183Z,0.09
2023-02-06T11:24:12.373Z,0.16
2023-02-06T11:25:27.369Z,0.14
2023-02-06T11:26:31.777Z,0.15
2023-02-06T11:27:36.657Z,0.09
2023-02-06T11:28:49.809Z,-0.02
2023-02-06T11:29:52.987Z,-0.08
2023-02-06T11:31:01.592Z,-0.09
2023-02-06T11:32:09.230Z,-0.14
2023-02-06T11:33:56.115Z,-0.14
2023-02-06T11:35:17.694Z,-0.35
2023-02-06T11:36:22.996Z,-0.31
2023-02-06T11:37:38.302Z,-0.20
2023-02-06T11:38:55.816Z,-0.11
2023-02-06T11:40:27.109Z,-0.10
2023-02-06T11:41:31.162Z,-0.05
2023-02-06T11:42:36.329Z,0.03
2023-02-06T11:43:42.230Z,-0.05
2023-02-06T11:44:50.962Z,-0.07
2023-02-06T11:46:16.370Z,-0.05
2023-02-06T11:47:37.545Z,-0.02
2023-02-06T11:48:44.958Z,0.06
2023-02-06T11:49:48.433Z,0.08
2023-02-06T11:50:58.561Z,0.10
2023-02-06T11:52:04.002Z,0.17
2023-02-06T11:53:22.620Z,0.23
2023-02-06T11:54:36.043Z,0.31
2023-02-06T11:55:40.170Z,0.27
2023-02-06T11:57:03.609Z,0.29
2023-02-06T11:58:25.506Z,0.32
2023-02-06T11:59:30.178Z,0.28
2023-02-06T12:00:36.604Z,0.28
2023-02-06T12:01:48.581Z,0.41
2023-02-06T12:02:54.289Z,0.36
2023-02-06T12:04:00.634Z,0.33
2023-02-06T12:05:16.089Z,0.30
2023-02-06T12:06:35.276Z,0.25
2023-02-06T12:08:03.386Z,0.17
2023-02-06T12:09:13.400Z,0.14
2023-02-06T12:10:19.977Z,0.16
2023-02-06T12:11:33.776Z,0.21
2023-02-06T12:12:43.093Z,0.31
2023-02-06T12:13:52.683Z,0.41
2023-02-06T12:15:29.436Z,0.35
2023-02-06T12:16:35.202Z,0.41
2023-02-06T12:17:43.032Z,0.35
2023-02-06T12:18:50.833Z,0.19
2023-02-06T12:20:35.311Z,0.21
2023-02-06T12:21:52.312Z,0.26
2023-02-06T12:23:07.460Z,0.14
2023-02-06T12:24:35.388Z,0.13
2023-02-06T12:25:42.304Z,0.11
2023-02-06T12:26:48.439Z,-0.07
2023-02-06T12:27:56.809Z,-0.07
2023-02-06T12:29:20.642Z,-0.05
2023-02-06T12:30:36.201Z,-0.06
2023-02-06T12:31:44.490Z,0.03
2023-02-06T12:32:51.142Z,0.02
2023-02-06T12:34:01.827Z,0.05
2023-02-06T12:35:21.897Z,0.01
2023-02-06T12:36:34.694Z,0.00
2023-02-06T12:37:49.543Z,0.08
2023-02-06T12:39:05.732Z,0.07
2023-02-06T12:40:49.972Z,0.14
2023-02-06T12:42:30.046Z,0.28
2023-02-06T12:44:55.331Z,0.40
2023-02-06T12:46:06.417Z,0.47
2023-02-06T12:47:30.900Z,0.45
2023-02-06T12:48:42.158Z,0.40
2023-02-06T12:49:54.142Z,0.41
2023-02-06T12:51:22.159Z,0.60
2023-02-06T12:52:41.974Z,0.53
2023-02-06T12:53:56.878Z,0.65
2023-02-06T12:55:08.917Z,0.59
2023-02-06T12:56:24.615Z,0.69
2023-02-06T12:57:31.706Z,0.58
2023-02-06T12:58:44.429Z,0.52
2023-02-06T13:00:23.090Z,0.47
2023-02-06T13:01:49.284Z,0.59
2023-02-06T13:03:21.266Z,0.53
2023-02-06T13:04:37.872Z,0.55
2023-02-06T13:05:50.455Z,0.56
2023-02-06T13:07:07.584Z,0.68
2023-02-06T13:08:29.082Z,0.68
2023-02-06T13:09:41.896Z,0.69
2023-02-06T13:10:45.418Z,0.59
2023-02-06T13:11:48.814Z,0.36
2023-02-06T13:12:57.440Z,0.31
2023-02-06T13:14:21.433Z,0.21
2023-02-06T13:15:27.743Z,0.23
2023-02-06T13:16:45.548Z,0.24
2023-02-06T13:17:51.750Z,0.07
2023-02-06T13:19:01.781Z,0.11
2023-02-06T13:20:09.467Z,0.05
2023-02-06T13:21:28.808Z,0.03
2023-02-06T13:22:46.315Z,0.09
2023-02-06T13:23:51.164Z,-0.02
2023-02-06T13:24:58.128Z,-0.17
2023-02-06T13:26:03.402Z,-0.23
2023-02-06T13:27:11.443Z,-0.32
2023-02-06T13:28:25.055Z,-0.39
2023-02-06T13:29:37.801Z,-0.25
2023-02-06T13:30:40.683Z,-0.25
2023-02-06T13:31:43.772Z,-0.26
2023-02-06T13:32:53.627Z,-0.36
2023-02-06T13:34:02.739Z,-0.24
2023-02-06T13:35:21.659Z,-0.33
2023-02-06T13:36:40.315Z,-0.30
2023-02-06T13:37:48.062Z,-0.21
2023-02-06T13:39:00.597Z,-0.37
2023-02-06T13:40:21.563Z,-0.39
2023-02-06T13:41:29.599Z,-0.31
2023-02-06T13:42:44.643Z,-0.33
2023-02-06T13:44:16.696Z,-0.30
2023-02-06T13:45:27.328Z,-0.41
2023-02-06T13:47:00.623Z,-0.34
2023-02-06T13:48:17.684Z,-0.35
2023-02-06T13:49:38.965Z,-0.27
2023-02-06T13:50:53.709Z,-0.22
2023-02-06T13:52:11.849Z,-0.24
2023-02-06T13:53:36.230Z,-0.30
2023-02-06T13:55:06.706Z,-0.25
2023-02-06T13:56:25.787Z,-0.17
2023-02-06T13:57:51.915Z,-0.02
2023-02-06T13:58:58.100Z,-0.10
2023-02-06T14:00:16.256Z,-0.14
2023-02-06T14:01:28.663Z,-0.10
2023-02-06T14:02:43.328Z,-0.09
2023-02-06T14:03:50.422Z,-0.13
2023-02-06T14:04:53.994Z,-0.18
2023-02-06T14:06:21.661Z,-0.37
2023-02-06T14:07:45.563Z,-0.35
2023-02-06T14:09:10.309Z,-0.31
2023-02-06T14:10:19.533Z,-0.41
2023-02-06T14:11:37.567Z,-0.50
2023-02-06T14:12:44.662Z,-0.57
2023-02-06T14:13:57.940Z,-0.50
2023-02-06T14:15:09.014Z,-0.46
2023-02-06T14:16:50.053Z,-0.50
2023-02-06T14:18:30.527Z,-0.50
2023-02-06T14:19:47.005Z,-0.63
2023-02-06T14:21:10.565Z,-0.63
2023-02-06T14:22:47.732Z,-0.65
2023-02-06T14:23:59.704Z,-0.75
2023-02-06T14:25:26.147Z,-0.57
2023-02-06T14:26:52.129Z,-0.52
2023-02-06T14:28:19.575Z,-0.56
2023-02-06T14:29:39.009Z,-0.59
2023-02-06T14:30:47.631Z,-0.60
2023-02-06T14:32:08.374Z,-0.70
2023-02-06T14:34:42.931Z,-0.65
2023-02-06T14:35:58.316Z,-0.64
2023-02-06T14:37:26.071Z,-0.62
2023-02-06T14:39:03.667Z,-0.51
2023-02-06T14:40:24.524Z,-0.63
2023-02-06T14:41:31.437Z,-0.64
2023-02-06T14:42:41.281Z,-0.71
2023-02-06T14:43:46.834Z,-0.65
2023-02-06T14:44:57.396Z,-0.65
2023-02-06T14:46:08.058Z,-0.61
2023-02-06T14:47:19.446Z,-0.71
2023-02-06T14:48:46.569Z,-0.70
2023-02-06T14:49:52.731Z,-0.84
2023-02-06T14:50:58.338Z,-0.84
2023-02-06T14:52:03.528Z,-0.89
2023-02-06T14:53:25.410Z,-0.80
2023-02-06T14:54:33.296Z,-0.90